sensor_id;sensor_type;location;lat;lon;timestamp;pressure;altitude;pressure_sealevel;temperature;humidity
35778;BME280;21899;42.662;23.316;2024-03-22T00:01:53;94591.63;;;5.95;45.74
35778;BME280;21899;42.662;23.316;2024-03-22T00:04:18;94595.44;;;5.85;46.37
35778;BME280;21899;42.662;23.316;2024-03-22T00:06:45;94595.16;;;5.71;47.23
35778;BME280;21899;42.662;23.316;2024-03-22T00:09:12;94592.53;;;5.58;47.21
35778;BME280;21899;42.662;23.316;2024-03-22T00:11:39;94595.22;;;5.58;47.55
35778;BME280;21899;42.662;23.316;2024-03-22T00:14:06;94596.72;;;5.59;47.34
35778;BME280;21899;42.662;23.316;2024-03-22T00:16:31;94600.38;;;5.40;47.87
35778;BME280;21899;42.662;23.316;2024-03-22T00:18:57;94596.31;;;5.48;47.97
35778;BME280;21899;42.662;23.316;2024-03-22T00:21:23;94592.47;;;5.49;47.67
35778;BME280;21899;42.662;23.316;2024-03-22T00:23:48;94593.09;;;5.53;47.93
35778;BME280;21899;42.662;23.316;2024-03-22T00:26:14;94591.00;;;5.48;47.97
35778;BME280;21899;42.662;23.316;2024-03-22T00:28:40;94601.38;;;5.55;47.72
35778;BME280;21899;42.662;23.316;2024-03-22T00:31:06;94593.34;;;5.46;48.37
35778;BME280;21899;42.662;23.316;2024-03-22T00:33:31;94593.59;;;5.39;49.21
35778;BME280;21899;42.662;23.316;2024-03-22T00:35:57;94600.06;;;5.38;49.13
35778;BME280;21899;42.662;23.316;2024-03-22T00:38:23;94599.69;;;5.27;49.54
35778;BME280;21899;42.662;23.316;2024-03-22T00:40:48;94610.03;;;5.25;49.83
35778;BME280;21899;42.662;23.316;2024-03-22T00:43:14;94600.13;;;5.25;49.78
35778;BME280;21899;42.662;23.316;2024-03-22T00:45:39;94608.03;;;5.16;49.88
35778;BME280;21899;42.662;23.316;2024-03-22T00:48:05;94600.56;;;5.11;49.95
35778;BME280;21899;42.662;23.316;2024-03-22T00:50:31;94602.06;;;5.12;50.54
35778;BME280;21899;42.662;23.316;2024-03-22T00:52:56;94597.41;;;5.04;50.55
35778;BME280;21899;42.662;23.316;2024-03-22T00:55:22;94596.97;;;5.05;50.75
35778;BME280;21899;42.662;23.316;2024-03-22T00:57:48;94594.00;;;5.03;50.39
35778;BME280;21899;42.662;23.316;2024-03-22T01:00:15;94572.66;;;4.82;50.31
35778;BME280;21899;42.662;23.316;2024-03-22T01:02:41;94593.59;;;4.92;50.55
35778;BME280;21899;42.662;23.316;2024-03-22T01:05:07;94594.34;;;4.93;50.27
35778;BME280;21899;42.662;23.316;2024-03-22T01:07:33;94600.09;;;4.79;51.13
35778;BME280;21899;42.662;23.316;2024-03-22T01:09:58;94599.16;;;4.73;51.56
35778;BME280;21899;42.662;23.316;2024-03-22T01:12:24;94579.78;;;4.72;51.54
35778;BME280;21899;42.662;23.316;2024-03-22T01:14:50;94593.84;;;4.73;52.11
35778;BME280;21899;42.662;23.316;2024-03-22T01:17:16;94595.97;;;4.65;51.49
35778;BME280;21899;42.662;23.316;2024-03-22T01:19:41;94594.63;;;4.61;52.17
35778;BME280;21899;42.662;23.316;2024-03-22T01:22:07;94599.28;;;4.57;52.67
35778;BME280;21899;42.662;23.316;2024-03-22T01:24:32;94604.19;;;4.58;51.79
35778;BME280;21899;42.662;23.316;2024-03-22T01:26:58;94603.31;;;4.48;51.93
35778;BME280;21899;42.662;23.316;2024-03-22T01:29:23;94596.94;;;4.46;51.86
35778;BME280;21899;42.662;23.316;2024-03-22T01:31:49;94597.38;;;4.44;52.11
35778;BME280;21899;42.662;23.316;2024-03-22T01:34:14;94600.34;;;4.46;51.82
35778;BME280;21899;42.662;23.316;2024-03-22T01:36:40;94577.06;;;4.38;50.97
35778;BME280;21899;42.662;23.316;2024-03-22T01:39:05;94587.06;;;4.46;51.39
35778;BME280;21899;42.662;23.316;2024-03-22T01:41:31;94592.91;;;4.41;51.39
35778;BME280;21899;42.662;23.316;2024-03-22T01:43:58;94602.25;;;4.33;51.55
35778;BME280;21899;42.662;23.316;2024-03-22T01:46:23;94595.34;;;4.36;51.42
35778;BME280;21899;42.662;23.316;2024-03-22T01:48:49;94584.19;;;4.28;51.34
35778;BME280;21899;42.662;23.316;2024-03-22T01:51:15;94592.25;;;4.25;51.31
35778;BME280;21899;42.662;23.316;2024-03-22T01:53:41;94586.00;;;4.31;51.59
35778;BME280;21899;42.662;23.316;2024-03-22T01:56:07;94595.56;;;4.29;52.15
35778;BME280;21899;42.662;23.316;2024-03-22T01:58:33;94588.34;;;4.42;51.91
35778;BME280;21899;42.662;23.316;2024-03-22T02:00:58;94582.38;;;4.38;50.09
35778;BME280;21899;42.662;23.316;2024-03-22T02:03:24;94590.56;;;4.43;51.39
35778;BME280;21899;42.662;23.316;2024-03-22T02:05:49;94584.91;;;4.41;51.68
35778;BME280;21899;42.662;23.316;2024-03-22T02:08:15;94590.97;;;4.54;51.12
35778;BME280;21899;42.662;23.316;2024-03-22T02:10:40;94590.13;;;4.58;51.83
35778;BME280;21899;42.662;23.316;2024-03-22T02:13:06;94590.13;;;4.58;51.70
35778;BME280;21899;42.662;23.316;2024-03-22T02:15:31;94575.03;;;4.54;51.97
35778;BME280;21899;42.662;23.316;2024-03-22T02:17:57;94586.09;;;4.53;51.60
35778;BME280;21899;42.662;23.316;2024-03-22T02:20:22;94582.34;;;4.63;52.43
35778;BME280;21899;42.662;23.316;2024-03-22T02:22:48;94593.53;;;4.58;51.97
35778;BME280;21899;42.662;23.316;2024-03-22T02:25:13;94588.63;;;4.57;52.30
35778;BME280;21899;42.662;23.316;2024-03-22T02:27:39;94599.59;;;4.59;53.12
35778;BME280;21899;42.662;23.316;2024-03-22T02:30:05;94594.81;;;4.53;51.75
35778;BME280;21899;42.662;23.316;2024-03-22T02:32:31;94598.22;;;4.54;52.38
35778;BME280;21899;42.662;23.316;2024-03-22T02:34:56;94599.06;;;4.51;53.12
35778;BME280;21899;42.662;23.316;2024-03-22T02:37:22;94588.22;;;4.45;51.71
35778;BME280;21899;42.662;23.316;2024-03-22T02:39:47;94610.56;;;4.61;51.85
35778;BME280;21899;42.662;23.316;2024-03-22T02:42:13;94587.91;;;4.43;52.10
35778;BME280;21899;42.662;23.316;2024-03-22T02:44:38;94607.06;;;4.51;52.34
35778;BME280;21899;42.662;23.316;2024-03-22T02:47:09;94609.59;;;4.42;53.11
35778;BME280;21899;42.662;23.316;2024-03-22T02:49:34;94611.38;;;4.32;52.57
35778;BME280;21899;42.662;23.316;2024-03-22T02:52:00;94612.06;;;4.36;53.22
35778;BME280;21899;42.662;23.316;2024-03-22T02:54:25;94611.38;;;4.32;52.89
35778;BME280;21899;42.662;23.316;2024-03-22T02:56:51;94614.28;;;4.25;52.92
35778;BME280;21899;42.662;23.316;2024-03-22T02:59:17;94602.88;;;4.12;53.11
35778;BME280;21899;42.662;23.316;2024-03-22T03:01:42;94619.47;;;4.16;53.51
35778;BME280;21899;42.662;23.316;2024-03-22T03:04:08;94625.81;;;4.06;53.67
35778;BME280;21899;42.662;23.316;2024-03-22T03:06:33;94624.41;;;3.89;54.87
35778;BME280;21899;42.662;23.316;2024-03-22T03:08:59;94626.94;;;3.80;54.95
35778;BME280;21899;42.662;23.316;2024-03-22T03:11:24;94639.56;;;3.76;54.77
35778;BME280;21899;42.662;23.316;2024-03-22T03:13:50;94640.38;;;3.73;55.71
35778;BME280;21899;42.662;23.316;2024-03-22T03:16:15;94635.06;;;3.73;55.66
35778;BME280;21899;42.662;23.316;2024-03-22T03:18:41;94639.84;;;3.65;55.78
35778;BME280;21899;42.662;23.316;2024-03-22T03:21:06;94645.47;;;3.67;56.19
35778;BME280;21899;42.662;23.316;2024-03-22T03:23:32;94633.88;;;3.61;56.04
35778;BME280;21899;42.662;23.316;2024-03-22T03:25:57;94643.94;;;3.54;56.85
35778;BME280;21899;42.662;23.316;2024-03-22T03:28:23;94648.50;;;3.53;57.01
35778;BME280;21899;42.662;23.316;2024-03-22T03:30:51;94654.00;;;3.46;56.83
35778;BME280;21899;42.662;23.316;2024-03-22T03:33:16;94642.63;;;3.46;57.24
35778;BME280;21899;42.662;23.316;2024-03-22T03:35:46;94650.91;;;3.48;57.40
35778;BME280;21899;42.662;23.316;2024-03-22T03:38:11;94651.09;;;3.41;57.54
35778;BME280;21899;42.662;23.316;2024-03-22T03:40:37;94649.03;;;3.32;58.10
35778;BME280;21899;42.662;23.316;2024-03-22T03:43:02;94650.63;;;3.30;57.92
35778;BME280;21899;42.662;23.316;2024-03-22T03:45:28;94652.28;;;3.24;58.42
35778;BME280;21899;42.662;23.316;2024-03-22T03:47:53;94663.00;;;3.20;58.31
35778;BME280;21899;42.662;23.316;2024-03-22T03:50:19;94664.56;;;3.18;58.18
35778;BME280;21899;42.662;23.316;2024-03-22T03:52:44;94659.59;;;3.03;58.33
35778;BME280;21899;42.662;23.316;2024-03-22T03:55:10;94665.97;;;3.06;58.46
35778;BME280;21899;42.662;23.316;2024-03-22T03:57:35;94669.13;;;3.01;58.01
35778;BME280;21899;42.662;23.316;2024-03-22T04:00:02;94665.00;;;3.00;57.82
35778;BME280;21899;42.662;23.316;2024-03-22T04:02:27;94653.28;;;2.81;57.73
35778;BME280;21899;42.662;23.316;2024-03-22T04:04:53;94643.84;;;2.64;58.14
35778;BME280;21899;42.662;23.316;2024-03-22T04:07:20;94670.63;;;2.86;58.10
35778;BME280;21899;42.662;23.316;2024-03-22T04:09:45;94676.00;;;2.82;58.39
35778;BME280;21899;42.662;23.316;2024-03-22T04:12:11;94682.97;;;2.76;58.76
35778;BME280;21899;42.662;23.316;2024-03-22T04:14:37;94684.44;;;2.77;58.59
35778;BME280;21899;42.662;23.316;2024-03-22T04:17:02;94676.81;;;2.79;58.81
35778;BME280;21899;42.662;23.316;2024-03-22T04:19:28;94676.97;;;2.72;59.24
35778;BME280;21899;42.662;23.316;2024-03-22T04:21:54;94682.97;;;2.76;59.08
35778;BME280;21899;42.662;23.316;2024-03-22T04:24:19;94676.59;;;2.74;59.07
35778;BME280;21899;42.662;23.316;2024-03-22T04:26:45;94678.06;;;2.75;59.41
35778;BME280;21899;42.662;23.316;2024-03-22T04:29:10;94683.38;;;2.75;59.24
35778;BME280;21899;42.662;23.316;2024-03-22T04:31:36;94690.41;;;2.81;59.31
35778;BME280;21899;42.662;23.316;2024-03-22T04:34:02;94690.59;;;2.90;59.06
35778;BME280;21899;42.662;23.316;2024-03-22T04:36:28;94689.44;;;2.91;59.05
35778;BME280;21899;42.662;23.316;2024-03-22T04:38:53;94698.06;;;2.95;58.73
35778;BME280;21899;42.662;23.316;2024-03-22T04:41:19;94692.94;;;3.05;58.42
35778;BME280;21899;42.662;23.316;2024-03-22T04:43:44;94692.84;;;3.08;58.76
35778;BME280;21899;42.662;23.316;2024-03-22T04:46:10;94698.72;;;3.16;58.19
35778;BME280;21899;42.662;23.316;2024-03-22T04:48:35;94687.94;;;3.07;58.23
35778;BME280;21899;42.662;23.316;2024-03-22T04:51:01;94705.78;;;3.22;58.07
35778;BME280;21899;42.662;23.316;2024-03-22T04:53:26;94699.97;;;3.27;57.33
35778;BME280;21899;42.662;23.316;2024-03-22T04:55:52;94698.97;;;3.37;57.27
35778;BME280;21899;42.662;23.316;2024-03-22T04:58:19;94705.09;;;3.34;57.21
35778;BME280;21899;42.662;23.316;2024-03-22T05:00:46;94704.13;;;3.44;56.77
35778;BME280;21899;42.662;23.316;2024-03-22T05:03:12;94703.84;;;3.55;56.58
35778;BME280;21899;42.662;23.316;2024-03-22T05:05:38;94710.13;;;3.61;57.00
35778;BME280;21899;42.662;23.316;2024-03-22T05:08:04;94712.50;;;3.71;56.05
35778;BME280;21899;42.662;23.316;2024-03-22T05:10:30;94712.16;;;3.86;55.90
35778;BME280;21899;42.662;23.316;2024-03-22T05:12:56;94719.06;;;3.83;56.80
35778;BME280;21899;42.662;23.316;2024-03-22T05:15:22;94720.34;;;3.91;55.17
35778;BME280;21899;42.662;23.316;2024-03-22T05:17:48;94715.94;;;4.01;54.92
35778;BME280;21899;42.662;23.316;2024-03-22T05:20:14;94714.16;;;4.10;55.10
35778;BME280;21899;42.662;23.316;2024-03-22T05:22:40;94725.22;;;4.21;55.28
35778;BME280;21899;42.662;23.316;2024-03-22T05:25:06;94726.13;;;4.31;55.00
35778;BME280;21899;42.662;23.316;2024-03-22T05:27:32;94717.66;;;4.48;53.86
35778;BME280;21899;42.662;23.316;2024-03-22T05:29:58;94717.22;;;4.50;54.19
35778;BME280;21899;42.662;23.316;2024-03-22T05:32:24;94724.06;;;4.64;52.91
35778;BME280;21899;42.662;23.316;2024-03-22T05:34:50;94724.06;;;4.76;51.71
35778;BME280;21899;42.662;23.316;2024-03-22T05:37:16;94732.91;;;4.86;51.78
35778;BME280;21899;42.662;23.316;2024-03-22T05:39:41;94728.22;;;4.90;51.65
35778;BME280;21899;42.662;23.316;2024-03-22T05:42:07;94734.94;;;4.94;50.78
35778;BME280;21899;42.662;23.316;2024-03-22T05:44:33;94729.59;;;5.07;50.64
35778;BME280;21899;42.662;23.316;2024-03-22T05:46:59;94734.94;;;5.19;49.72
35778;BME280;21899;42.662;23.316;2024-03-22T05:49:24;94733.56;;;5.15;50.31
35778;BME280;21899;42.662;23.316;2024-03-22T05:51:49;94739.53;;;5.19;51.07
35778;BME280;21899;42.662;23.316;2024-03-22T05:54:15;94735.66;;;5.20;50.90
35778;BME280;21899;42.662;23.316;2024-03-22T05:56:40;94738.22;;;5.36;50.20
35778;BME280;21899;42.662;23.316;2024-03-22T05:59:06;94743.66;;;5.45;50.44
35778;BME280;21899;42.662;23.316;2024-03-22T06:01:32;94744.28;;;5.49;50.76
35778;BME280;21899;42.662;23.316;2024-03-22T06:03:57;94747.88;;;5.55;50.35
35778;BME280;21899;42.662;23.316;2024-03-22T06:06:23;94745.00;;;5.62;49.58
35778;BME280;21899;42.662;23.316;2024-03-22T06:08:51;94748.16;;;5.82;49.66
35778;BME280;21899;42.662;23.316;2024-03-22T06:11:22;94746.22;;;5.95;48.29
35778;BME280;21899;42.662;23.316;2024-03-22T06:13:48;94740.38;;;5.88;47.73
35778;BME280;21899;42.662;23.316;2024-03-22T06:16:14;94743.16;;;5.84;47.76
35778;BME280;21899;42.662;23.316;2024-03-22T06:18:40;94737.91;;;5.93;48.57
35778;BME280;21899;42.662;23.316;2024-03-22T06:21:06;94742.91;;;6.26;48.09
35778;BME280;21899;42.662;23.316;2024-03-22T06:23:32;94746.88;;;6.43;47.38
35778;BME280;21899;42.662;23.316;2024-03-22T06:25:57;94745.50;;;6.60;47.11
35778;BME280;21899;42.662;23.316;2024-03-22T06:28:23;94748.66;;;6.67;46.59
35778;BME280;21899;42.662;23.316;2024-03-22T06:30:49;94738.66;;;6.81;46.03
35778;BME280;21899;42.662;23.316;2024-03-22T06:33:14;94744.22;;;6.95;45.58
35778;BME280;21899;42.662;23.316;2024-03-22T06:35:43;94743.69;;;7.09;44.75
35778;BME280;21899;42.662;23.316;2024-03-22T06:38:08;94742.97;;;7.18;43.90
35778;BME280;21899;42.662;23.316;2024-03-22T06:40:34;94745.84;;;7.32;44.16
35778;BME280;21899;42.662;23.316;2024-03-22T06:43:00;94746.34;;;7.49;43.57
35778;BME280;21899;42.662;23.316;2024-03-22T06:45:25;94750.69;;;7.65;43.40
35778;BME280;21899;42.662;23.316;2024-03-22T06:47:51;94738.81;;;7.75;43.08
35778;BME280;21899;42.662;23.316;2024-03-22T06:50:17;94760.84;;;7.97;42.95
35778;BME280;21899;42.662;23.316;2024-03-22T06:52:50;94761.13;;;8.08;42.97
35778;BME280;21899;42.662;23.316;2024-03-22T06:55:17;94766.19;;;8.15;42.87
35778;BME280;21899;42.662;23.316;2024-03-22T06:57:43;94763.53;;;8.24;42.11
35778;BME280;21899;42.662;23.316;2024-03-22T07:00:10;94772.31;;;8.34;42.37
35778;BME280;21899;42.662;23.316;2024-03-22T07:02:36;94755.38;;;8.27;41.54
35778;BME280;21899;42.662;23.316;2024-03-22T07:05:02;94764.44;;;8.30;42.38
35778;BME280;21899;42.662;23.316;2024-03-22T07:07:29;94769.22;;;8.35;42.43
35778;BME280;21899;42.662;23.316;2024-03-22T07:09:54;94768.59;;;8.49;40.72
35778;BME280;21899;42.662;23.316;2024-03-22T07:12:20;94776.63;;;8.58;40.83
35778;BME280;21899;42.662;23.316;2024-03-22T07:14:45;94779.16;;;8.53;41.10
35778;BME280;21899;42.662;23.316;2024-03-22T07:17:11;94775.44;;;8.68;40.77
35778;BME280;21899;42.662;23.316;2024-03-22T07:19:36;94771.25;;;8.58;40.48
35778;BME280;21899;42.662;23.316;2024-03-22T07:22:02;94770.66;;;8.63;40.43
35778;BME280;21899;42.662;23.316;2024-03-22T07:24:28;94773.47;;;8.78;40.98
35778;BME280;21899;42.662;23.316;2024-03-22T07:26:53;94772.41;;;8.93;40.60
35778;BME280;21899;42.662;23.316;2024-03-22T07:29:19;94775.50;;;9.10;40.12
35778;BME280;21899;42.662;23.316;2024-03-22T07:31:45;94776.47;;;9.22;40.46
35778;BME280;21899;42.662;23.316;2024-03-22T07:34:10;94773.81;;;9.22;40.13
35778;BME280;21899;42.662;23.316;2024-03-22T07:36:39;94776.22;;;9.11;40.43
35778;BME280;21899;42.662;23.316;2024-03-22T07:39:05;94782.50;;;9.08;41.02
35778;BME280;21899;42.662;23.316;2024-03-22T07:41:34;94775.34;;;9.05;41.50
35778;BME280;21899;42.662;23.316;2024-03-22T07:44:00;94779.50;;;9.15;41.18
35778;BME280;21899;42.662;23.316;2024-03-22T07:46:26;94774.69;;;9.28;41.55
35778;BME280;21899;42.662;23.316;2024-03-22T07:48:52;94772.94;;;9.48;40.44
35778;BME280;21899;42.662;23.316;2024-03-22T07:51:18;94781.25;;;9.59;40.96
35778;BME280;21899;42.662;23.316;2024-03-22T07:53:44;94779.41;;;9.65;40.05
35778;BME280;21899;42.662;23.316;2024-03-22T07:56:09;94782.53;;;9.73;40.09
35778;BME280;21899;42.662;23.316;2024-03-22T07:58:35;94775.88;;;9.59;39.76
35778;BME280;21899;42.662;23.316;2024-03-22T08:01:00;94784.97;;;9.62;40.41
35778;BME280;21899;42.662;23.316;2024-03-22T08:03:26;94777.03;;;9.67;39.22
35778;BME280;21899;42.662;23.316;2024-03-22T08:05:51;94783.81;;;9.54;40.23
35778;BME280;21899;42.662;23.316;2024-03-22T08:08:17;94782.91;;;9.57;40.01
35778;BME280;21899;42.662;23.316;2024-03-22T08:10:43;94782.69;;;9.69;40.39
35778;BME280;21899;42.662;23.316;2024-03-22T08:13:08;94782.91;;;9.81;39.45
35778;BME280;21899;42.662;23.316;2024-03-22T08:15:35;94777.91;;;9.97;38.88
35778;BME280;21899;42.662;23.316;2024-03-22T08:18:01;94782.56;;;10.20;39.11
35778;BME280;21899;42.662;23.316;2024-03-22T08:20:26;94780.22;;;10.13;39.50
35778;BME280;21899;42.662;23.316;2024-03-22T08:22:52;94771.59;;;10.33;38.60
35778;BME280;21899;42.662;23.316;2024-03-22T08:25:17;94777.34;;;10.40;38.29
35778;BME280;21899;42.662;23.316;2024-03-22T08:27:45;94763.25;;;10.31;38.09
35778;BME280;21899;42.662;23.316;2024-03-22T08:30:11;94751.09;;;9.97;38.31
35778;BME280;21899;42.662;23.316;2024-03-22T08:32:37;94764.59;;;10.03;38.82
35778;BME280;21899;42.662;23.316;2024-03-22T08:35:03;94770.72;;;10.27;38.30
35778;BME280;21899;42.662;23.316;2024-03-22T08:37:30;94775.22;;;10.44;37.87
35778;BME280;21899;42.662;23.316;2024-03-22T08:39:55;94767.44;;;10.46;37.96
35778;BME280;21899;42.662;23.316;2024-03-22T08:42:21;94767.56;;;10.67;37.07
35778;BME280;21899;42.662;23.316;2024-03-22T08:44:46;94769.06;;;10.82;36.39
35778;BME280;21899;42.662;23.316;2024-03-22T08:47:12;94776.28;;;10.91;36.13
35778;BME280;21899;42.662;23.316;2024-03-22T08:49:37;94776.66;;;10.84;35.96
35778;BME280;21899;42.662;23.316;2024-03-22T08:52:03;94775.38;;;10.94;36.11
35778;BME280;21899;42.662;23.316;2024-03-22T08:54:28;94774.06;;;11.04;35.66
35778;BME280;21899;42.662;23.316;2024-03-22T08:56:54;94773.69;;;11.11;36.14
35778;BME280;21899;42.662;23.316;2024-03-22T08:59:19;94775.00;;;11.01;35.72
35778;BME280;21899;42.662;23.316;2024-03-22T09:01:45;94779.25;;;10.93;35.83
35778;BME280;21899;42.662;23.316;2024-03-22T09:04:10;94771.09;;;10.73;36.65
35778;BME280;21899;42.662;23.316;2024-03-22T09:06:36;94772.97;;;10.96;35.84
35778;BME280;21899;42.662;23.316;2024-03-22T09:09:01;94779.72;;;11.06;35.57
35778;BME280;21899;42.662;23.316;2024-03-22T09:11:28;94777.88;;;10.97;34.44
35778;BME280;21899;42.662;23.316;2024-03-22T09:13:54;94757.97;;;10.89;35.47
35778;BME280;21899;42.662;23.316;2024-03-22T09:16:20;94761.09;;;10.73;35.70
35778;BME280;21899;42.662;23.316;2024-03-22T09:18:46;94773.50;;;10.71;36.22
35778;BME280;21899;42.662;23.316;2024-03-22T09:21:11;94754.38;;;10.39;36.10
35778;BME280;21899;42.662;23.316;2024-03-22T09:23:37;94759.03;;;10.54;36.60
35778;BME280;21899;42.662;23.316;2024-03-22T09:26:03;94750.91;;;10.77;35.72
35778;BME280;21899;42.662;23.316;2024-03-22T09:28:28;94755.56;;;10.77;35.46
35778;BME280;21899;42.662;23.316;2024-03-22T09:30:54;94747.00;;;10.93;35.63
35778;BME280;21899;42.662;23.316;2024-03-22T09:33:19;94746.81;;;11.11;35.68
35778;BME280;21899;42.662;23.316;2024-03-22T09:35:45;94743.88;;;11.09;35.25
35778;BME280;21899;42.662;23.316;2024-03-22T09:38:10;94748.19;;;11.21;34.88
35778;BME280;21899;42.662;23.316;2024-03-22T09:40:39;94743.66;;;11.27;35.38
35778;BME280;21899;42.662;23.316;2024-03-22T09:43:06;94742.50;;;11.48;34.33
35778;BME280;21899;42.662;23.316;2024-03-22T09:45:32;94748.50;;;11.23;34.60
35778;BME280;21899;42.662;23.316;2024-03-22T09:47:58;94748.13;;;11.01;34.65
35778;BME280;21899;42.662;23.316;2024-03-22T09:50:25;94747.75;;;10.93;35.57
35778;BME280;21899;42.662;23.316;2024-03-22T09:52:52;94747.56;;;10.97;35.51
35778;BME280;21899;42.662;23.316;2024-03-22T09:55:22;94747.38;;;11.15;35.30
35778;BME280;21899;42.662;23.316;2024-03-22T09:57:49;94740.50;;;11.29;34.80
35778;BME280;21899;42.662;23.316;2024-03-22T10:00:18;94741.59;;;11.37;35.07
35778;BME280;21899;42.662;23.316;2024-03-22T10:02:46;94734.91;;;11.47;34.12
35778;BME280;21899;42.662;23.316;2024-03-22T10:05:12;94742.34;;;11.37;35.21
35778;BME280;21899;42.662;23.316;2024-03-22T10:07:38;94740.09;;;11.50;35.50
35778;BME280;21899;42.662;23.316;2024-03-22T10:10:04;94734.91;;;11.47;34.49
35778;BME280;21899;42.662;23.316;2024-03-22T10:12:30;94739.00;;;11.42;34.56
35778;BME280;21899;42.662;23.316;2024-03-22T10:14:55;94723.72;;;11.19;35.17
35778;BME280;21899;42.662;23.316;2024-03-22T10:17:21;94739.38;;;11.35;35.46
35778;BME280;21899;42.662;23.316;2024-03-22T10:19:50;94737.31;;;11.45;34.75
35778;BME280;21899;42.662;23.316;2024-03-22T10:22:17;94729.28;;;11.65;34.44
35778;BME280;21899;42.662;23.316;2024-03-22T10:24:43;94735.59;;;11.76;34.29
35778;BME280;21899;42.662;23.316;2024-03-22T10:27:08;94728.06;;;12.01;33.93
35778;BME280;21899;42.662;23.316;2024-03-22T10:29:35;94692.66;;;12.08;34.13
35778;BME280;21899;42.662;23.316;2024-03-22T10:32:01;94725.38;;;12.46;33.89
35778;BME280;21899;42.662;23.316;2024-03-22T10:34:28;94715.50;;;12.38;32.90
35778;BME280;21899;42.662;23.316;2024-03-22T10:36:55;94717.16;;;12.30;32.78
35778;BME280;21899;42.662;23.316;2024-03-22T10:39:23;94714.13;;;11.82;33.25
35778;BME280;21899;42.662;23.316;2024-03-22T10:41:49;94691.69;;;11.50;34.02
35778;BME280;21899;42.662;23.316;2024-03-22T10:44:15;94705.50;;;11.78;33.58
35778;BME280;21899;42.662;23.316;2024-03-22T10:46:46;94693.94;;;11.92;33.68
35778;BME280;21899;42.662;23.316;2024-03-22T10:49:19;94691.75;;;11.90;33.64
35778;BME280;21899;42.662;23.316;2024-03-22T10:51:53;94697.38;;;11.72;33.62
35778;BME280;21899;42.662;23.316;2024-03-22T10:54:22;94695.53;;;11.64;34.42
35778;BME280;21899;42.662;23.316;2024-03-22T10:56:50;94669.78;;;11.57;34.34
35778;BME280;21899;42.662;23.316;2024-03-22T10:59:21;94683.53;;;12.00;34.03
35778;BME280;21899;42.662;23.316;2024-03-22T11:01:48;94688.59;;;12.18;33.30
35778;BME280;21899;42.662;23.316;2024-03-22T11:04:16;94685.78;;;12.27;32.44
35778;BME280;21899;42.662;23.316;2024-03-22T11:06:47;94677.53;;;12.36;32.42
35778;BME280;21899;42.662;23.316;2024-03-22T11:09:21;94664.06;;;12.36;32.36
35778;BME280;21899;42.662;23.316;2024-03-22T11:11:47;94675.38;;;12.65;32.39
35778;BME280;21899;42.662;23.316;2024-03-22T11:14:12;94673.88;;;12.59;32.24
35778;BME280;21899;42.662;23.316;2024-03-22T11:16:38;94675.22;;;12.49;32.46
35778;BME280;21899;42.662;23.316;2024-03-22T11:19:04;94672.94;;;12.42;31.92
35778;BME280;21899;42.662;23.316;2024-03-22T11:21:32;94668.72;;;12.35;32.67
35778;BME280;21899;42.662;23.316;2024-03-22T11:24:00;94666.78;;;12.36;32.40
35778;BME280;21899;42.662;23.316;2024-03-22T11:26:26;94666.28;;;12.37;32.16
35778;BME280;21899;42.662;23.316;2024-03-22T11:31:22;94665.63;;;11.96;32.23
35778;BME280;21899;42.662;23.316;2024-03-22T11:33:53;94668.44;;;12.08;32.18
35778;BME280;21899;42.662;23.316;2024-03-22T11:36:18;94665.56;;;11.91;32.45
35778;BME280;21899;42.662;23.316;2024-03-22T11:38:44;94656.75;;;11.90;32.92
35778;BME280;21899;42.662;23.316;2024-03-22T11:41:10;94647.44;;;12.12;32.33
35778;BME280;21899;42.662;23.316;2024-03-22T11:43:38;94645.28;;;12.41;32.37
35778;BME280;21899;42.662;23.316;2024-03-22T11:46:03;94647.00;;;12.70;31.15
35778;BME280;21899;42.662;23.316;2024-03-22T11:48:29;94651.44;;;13.04;31.05
35778;BME280;21899;42.662;23.316;2024-03-22T11:50:55;94631.72;;;13.24;30.34
35778;BME280;21899;42.662;23.316;2024-03-22T11:53:21;94624.47;;;13.41;29.89
35778;BME280;21899;42.662;23.316;2024-03-22T11:55:49;94627.25;;;13.58;30.17
35778;BME280;21899;42.662;23.316;2024-03-22T11:58:15;94614.03;;;13.65;29.71
35778;BME280;21899;42.662;23.316;2024-03-22T12:00:42;94616.28;;;13.78;29.32
35778;BME280;21899;42.662;23.316;2024-03-22T12:03:09;94615.34;;;13.92;29.60
35778;BME280;21899;42.662;23.316;2024-03-22T12:05:34;94616.09;;;13.92;29.25
35778;BME280;21899;42.662;23.316;2024-03-22T12:08:00;94618.63;;;14.12;29.27
35778;BME280;21899;42.662;23.316;2024-03-22T12:10:25;94613.69;;;14.05;29.42
35778;BME280;21899;42.662;23.316;2024-03-22T12:12:51;94610.69;;;13.92;28.96
35778;BME280;21899;42.662;23.316;2024-03-22T12:15:19;94614.53;;;13.64;28.88
35778;BME280;21899;42.662;23.316;2024-03-22T12:17:44;94610.97;;;13.41;29.21
35778;BME280;21899;42.662;23.316;2024-03-22T12:20:10;94606.28;;;13.30;29.18
35778;BME280;21899;42.662;23.316;2024-03-22T12:22:35;94602.25;;;13.09;29.35
35778;BME280;21899;42.662;23.316;2024-03-22T12:25:01;94602.41;;;13.00;29.91
35778;BME280;21899;42.662;23.316;2024-03-22T12:27:27;94609.25;;;12.64;29.95
35778;BME280;21899;42.662;23.316;2024-03-22T12:29:52;94604.63;;;12.70;29.66
35778;BME280;21899;42.662;23.316;2024-03-22T12:32:18;94594.66;;;12.82;29.73
35778;BME280;21899;42.662;23.316;2024-03-22T12:34:44;94593.06;;;13.01;30.10
35778;BME280;21899;42.662;23.316;2024-03-22T12:37:10;94585.19;;;13.34;29.54
35778;BME280;21899;42.662;23.316;2024-03-22T12:39:35;94582.13;;;13.64;28.73
35778;BME280;21899;42.662;23.316;2024-03-22T12:42:02;94580.47;;;13.83;28.07
35778;BME280;21899;42.662;23.316;2024-03-22T12:44:28;94579.28;;;13.95;28.08
35778;BME280;21899;42.662;23.316;2024-03-22T12:46:54;94584.47;;;14.15;28.00
35778;BME280;21899;42.662;23.316;2024-03-22T12:49:19;94578.16;;;14.29;27.22
35778;BME280;21899;42.662;23.316;2024-03-22T12:51:45;94579.38;;;14.34;26.80
35778;BME280;21899;42.662;23.316;2024-03-22T12:54:11;94572.28;;;14.47;26.95